Time;durP1;ratioP1;P1;durP2;ratioP2;P2;SDS_P1;SDS_P2;PMS_P1;PMS_P2;Temp;Humidity;BMP_temperature;BMP_pressure;BME280_temperature;BME280_humidity;BME280_pressure;Samples;Min_cycle;Max_cycle;Signal;HPM_P1;HPM_P2
2023/10/19 00:01:47;;;;;;;24.27;20.80;;;;;;;10.39;100.00;99088.63;5015954;28;20278;-66
2023/10/19 00:04:12;;;;;;;23.27;20.17;;;;;;;10.41;100.00;99092.09;5033225;28;20382;-66
2023/10/19 00:06:40;;;;;;;23.60;20.80;;;;;;;10.42;100.00;99094.69;5011848;28;20022;-66
2023/10/19 00:09:11;;;;;;;25.08;20.02;;;;;;;10.44;100.00;99092.09;5014991;28;20044;-66
2023/10/19 00:11:36;;;;;;;23.90;21.40;;;;;;;10.44;100.00;99086.91;5009472;28;20041;-65
2023/10/19 00:14:03;;;;;;;22.23;19.90;;;;;;;10.48;100.00;99108.53;5006075;28;20026;-66
2023/10/19 00:16:35;;;;;;;23.45;21.15;;;;;;;10.47;100.00;99096.44;5014100;28;20047;-66
2023/10/19 00:19:00;;;;;;;22.35;19.90;;;;;;;10.48;100.00;99114.59;4997471;28;20033;-66
2023/10/19 00:21:27;;;;;;;23.27;19.63;;;;;;;10.50;100.00;99117.19;5012725;28;20024;-66
2023/10/19 00:23:57;;;;;;;24.80;20.48;;;;;;;10.52;100.00;99098.19;5013606;28;20113;-66
2023/10/19 00:26:26;;;;;;;24.00;19.20;;;;;;;10.55;100.00;99100.81;4993938;28;20117;-66
2023/10/19 00:28:55;;;;;;;21.52;18.35;;;;;;;10.57;100.00;99098.22;5007152;28;20618;-66
2023/10/19 00:31:20;;;;;;;23.88;20.17;;;;;;;10.59;100.00;99101.69;4994528;28;20022;-66
2023/10/19 00:33:46;;;;;;;22.80;19.38;;;;;;;10.61;100.00;99089.63;5004042;28;20389;-67
2023/10/19 00:36:14;;;;;;;22.17;19.17;;;;;;;10.63;100.00;99093.06;5016807;28;20021;-66
2023/10/19 00:41:56;;;;;;;22.05;18.40;;;;;;;10.65;100.00;99087.91;5009223;28;20049;-66
2023/10/19 00:44:11;;;;;;;20.63;17.95;;;;;;;10.65;100.00;99091.34;5007203;28;20107;-66
2023/10/19 00:49:09;;;;;;;24.55;19.90;;;;;;;10.67;100.00;99099.13;5013463;28;20050;-66
2023/10/19 00:51:54;;;;;;;21.38;18.38;;;;;;;10.67;100.00;99074.09;5011507;28;20060;-66
2023/10/19 00:54:35;;;;;;;21.20;18.90;;;;;;;10.71;100.00;99084.44;5009337;28;20026;-65
2023/10/19 00:57:20;;;;;;;22.27;18.42;;;;;;;10.74;100.00;99085.31;5012954;28;20026;-66
2023/10/19 00:59:51;;;;;;;24.50;19.65;;;;;;;10.78;100.00;99092.25;5000489;28;20097;-66
2023/10/19 01:02:17;;;;;;;23.63;19.17;;;;;;;10.82;100.00;99075.00;5025515;28;20161;-66
2023/10/19 01:04:45;;;;;;;23.25;17.92;;;;;;;10.85;100.00;99076.75;4998806;28;20058;-66
2023/10/19 01:07:22;;;;;;;21.80;18.25;;;;;;;10.88;100.00;99079.34;5017251;28;20037;-66
2023/10/19 01:09:47;;;;;;;21.75;17.92;;;;;;;10.93;100.00;99085.41;5002940;28;20110;-66
2023/10/19 01:12:25;;;;;;;21.70;18.08;;;;;;;10.99;100.00;99085.41;4990189;28;20646;-66
2023/10/19 01:15:06;;;;;;;22.90;18.40;;;;;;;11.05;100.00;99084.53;5001455;28;20040;-66
2023/10/19 01:17:33;;;;;;;25.10;18.88;;;;;;;11.10;100.00;99081.97;5012231;28;20064;-66
2023/10/19 01:19:58;;;;;;;22.63;17.95;;;;;;;11.15;100.00;99083.69;5009930;28;20032;-66
2023/10/19 01:22:26;;;;;;;22.08;17.38;;;;;;;11.19;100.00;99079.38;5027150;28;20009;-66
2023/10/19 01:24:53;;;;;;;21.38;17.40;;;;;;;11.22;100.00;99079.41;5018423;28;20022;-66
2023/10/19 01:27:18;;;;;;;21.88;17.08;;;;;;;11.28;100.00;99078.53;4993676;28;20032;-66
2023/10/19 01:29:44;;;;;;;20.58;17.13;;;;;;;11.34;100.00;99080.25;5007247;28;20377;-67
2023/10/19 01:32:11;;;;;;;23.38;17.42;;;;;;;11.36;100.00;99071.63;5014738;28;20062;-67
2023/10/19 01:34:37;;;;;;;23.45;17.42;;;;;;;11.39;100.00;99076.81;5007272;28;20105;-66
2023/10/19 01:37:03;;;;;;;20.40;16.98;;;;;;;11.42;100.00;99073.38;5018436;28;20438;-66
2023/10/19 01:39:38;;;;;;;20.40;16.15;;;;;;;11.44;100.00;99071.63;5005353;28;20494;-67
2023/10/19 01:42:04;;;;;;;19.15;16.35;;;;;;;11.48;100.00;99067.28;4999570;28;20042;-66
2023/10/19 01:44:30;;;;;;;18.67;15.55;;;;;;;11.52;100.00;99058.66;4997746;28;20042;-67
2023/10/19 01:46:56;;;;;;;23.00;16.92;;;;;;;11.56;100.00;99064.72;5009680;28;20104;-66
2023/10/19 01:49:28;;;;;;;16.45;14.73;;;;;;;11.62;100.00;99065.56;4996034;28;20022;-66
2023/10/19 01:51:54;;;;;;;20.20;15.27;;;;;;;11.65;100.00;99067.31;5000354;28;20379;-66
2023/10/19 01:54:23;;;;;;;23.25;13.88;;;;;;;11.70;100.00;99068.16;5015743;28;20025;-66
2023/10/19 01:56:50;;;;;;;20.38;13.35;;;;;;;11.75;100.00;99065.56;5008006;28;20104;-66
2023/10/19 01:59:16;;;;;;;17.50;13.82;;;;;;;11.83;100.00;99060.38;5024848;28;20165;-66
2023/10/19 02:01:44;;;;;;;20.80;14.00;;;;;;;11.87;100.00;99067.28;5009282;28;20109;-66
2023/10/19 02:04:12;;;;;;;15.30;12.75;;;;;;;11.92;100.00;99072.47;5019120;28;20029;-67
2023/10/19 02:06:40;;;;;;;15.32;12.35;;;;;;;11.97;100.00;99074.19;5011161;28;20029;-67
2023/10/19 02:09:14;;;;;;;17.90;12.48;;;;;;;12.00;100.00;99074.16;5007242;28;20032;-66
2023/10/19 02:11:41;;;;;;;15.73;11.95;;;;;;;12.04;100.00;99066.38;5001233;28;20034;-67
2023/10/19 02:14:13;;;;;;;16.27;11.63;;;;;;;12.08;100.00;99066.38;5011168;28;20359;-66
2023/10/19 02:16:39;;;;;;;16.65;11.00;;;;;;;12.11;100.00;99068.09;5006951;28;20126;-66
2023/10/19 02:19:04;;;;;;;14.57;10.85;;;;;;;12.13;100.00;99062.06;5007213;28;20027;-66
2023/10/19 02:21:30;;;;;;;13.85;9.35;;;;;;;12.20;100.00;99062.03;5017309;28;20053;-66
2023/10/19 02:23:58;;;;;;;13.70;8.30;;;;;;;12.22;100.00;99058.56;5022337;28;20033;-66
2023/10/19 02:26:26;;;;;;;11.88;6.45;;;;;;;12.24;100.00;99059.44;4988797;28;20026;-66
2023/10/19 02:28:52;;;;;;;9.57;5.35;;;;;;;12.32;100.00;99061.16;4995738;28;20159;-66
2023/10/19 02:31:20;;;;;;;10.18;5.72;;;;;;;12.35;100.00;99061.13;5017704;28;20100;-66
2023/10/19 02:33:46;;;;;;;10.55;4.65;;;;;;;12.39;100.00;99054.19;5011004;28;20056;-66
2023/10/19 02:36:15;;;;;;;6.75;4.22;;;;;;;12.41;100.00;99060.25;5026903;28;20017;-67
2023/10/19 02:38:44;;;;;;;10.07;3.65;;;;;;;12.44;100.00;99052.44;5024139;28;20030;-67
2023/10/19 02:41:09;;;;;;;9.25;3.05;;;;;;;12.45;100.00;99055.00;5014646;28;20049;-66
2023/10/19 02:43:36;;;;;;;6.00;3.15;;;;;;;12.47;100.00;99052.41;5004821;28;20332;-66
2023/10/19 02:46:03;;;;;;;8.38;3.25;;;;;;;12.49;100.00;99043.75;5000807;28;20038;-66
2023/10/19 02:48:28;;;;;;;9.35;3.08;;;;;;;12.50;100.00;99044.63;5001777;28;20029;-66
2023/10/19 02:50:54;;;;;;;4.40;2.60;;;;;;;12.52;100.00;99045.44;5014204;28;20025;-67
2023/10/19 02:53:19;;;;;;;6.90;3.08;;;;;;;12.54;100.00;99048.06;5007647;28;20508;-66
2023/10/19 02:55:44;;;;;;;5.95;2.92;;;;;;;12.58;100.00;99053.22;4997937;28;20030;-66
2023/10/19 02:58:11;;;;;;;8.25;3.17;;;;;;;12.58;100.00;99050.63;4992720;28;20471;-66
2023/10/19 03:00:39;;;;;;;8.73;2.80;;;;;;;12.59;100.00;99048.91;4991331;28;20168;-65
2023/10/19 03:03:06;;;;;;;5.20;2.67;;;;;;;12.59;100.00;99043.72;4992591;28;20379;-67
2023/10/19 03:05:31;;;;;;;5.35;2.38;;;;;;;12.61;100.00;99052.34;5012230;28;20029;-67
2023/10/19 03:07:57;;;;;;;12.57;2.97;;;;;;;12.61;100.00;99048.00;5012312;28;20070;-67
2023/10/19 03:10:34;;;;;;;5.28;2.15;;;;;;;12.60;100.00;99041.09;5012232;28;20026;-67
2023/10/19 03:13:01;;;;;;;5.32;2.70;;;;;;;12.60;100.00;99045.44;5004755;28;20021;-66
2023/10/19 03:15:30;;;;;;;7.47;2.58;;;;;;;12.61;100.00;99041.94;5017580;28;20053;-67
2023/10/19 03:17:55;;;;;;;7.68;2.65;;;;;;;12.61;100.00;99036.75;4995493;28;20351;-67
2023/10/19 03:20:23;;;;;;;6.10;3.00;;;;;;;12.61;100.00;99036.75;5006851;28;20033;-67
2023/10/19 03:22:49;;;;;;;5.38;2.60;;;;;;;12.59;100.00;99038.50;5007575;28;20710;-67
2023/10/19 03:26:17;;;;;;;5.85;2.35;;;;;;;12.59;100.00;99031.56;5007398;28;20090;-67
2023/10/19 03:28:11;;;;;;;5.72;2.55;;;;;;;12.61;100.00;99036.75;4987887;28;20042;-66
2023/10/19 03:30:38;;;;;;;8.07;2.60;;;;;;;12.60;100.00;99030.72;5020776;28;20087;-67
2023/10/19 03:33:04;;;;;;;5.55;2.53;;;;;;;12.60;100.00;99027.25;5015178;28;20161;-66
2023/10/19 03:35:30;;;;;;;4.80;2.80;;;;;;;12.61;100.00;99027.22;5010172;28;20026;-67
2023/10/19 03:37:58;;;;;;;6.07;2.53;;;;;;;12.60;100.00;99020.31;5021625;28;20018;-67
2023/10/19 03:40:32;;;;;;;10.18;2.35;;;;;;;12.58;100.00;99023.78;5006698;28;20030;-66
2023/10/19 03:42:58;;;;;;;3.75;2.05;;;;;;;12.58;100.00;99021.19;5005804;28;20121;-67
2023/10/19 03:45:24;;;;;;;7.72;2.80;;;;;;;12.57;100.00;99022.94;5014719;28;20093;-67
2023/10/19 03:47:53;;;;;;;3.97;2.88;;;;;;;12.57;100.00;99015.16;5011566;28;20026;-67
2023/10/19 03:50:22;;;;;;;5.82;2.70;;;;;;;12.57;100.00;99022.06;4996584;28;20192;-67
2023/10/19 03:52:47;;;;;;;8.07;2.42;;;;;;;12.58;100.00;99026.38;5004041;28;20687;-66
2023/10/19 03:55:18;;;;;;;10.18;2.92;;;;;;;12.58;100.00;99015.97;5005727;28;20024;-67
2023/10/19 03:57:47;;;;;;;6.78;2.60;;;;;;;12.57;100.00;99019.47;5021697;28;20041;-66
2023/10/19 04:00:16;;;;;;;4.68;2.72;;;;;;;12.57;100.00;99019.47;4998388;28;20030;-67
2023/10/19 04:02:42;;;;;;;7.50;2.67;;;;;;;12.57;100.00;99025.53;4997541;28;20462;-66
2023/10/19 04:05:10;;;;;;;7.88;2.55;;;;;;;12.54;100.00;99012.53;5015659;28;20168;-66
2023/10/19 04:07:35;;;;;;;6.68;2.35;;;;;;;12.53;100.00;99013.44;5010239;28;20370;-66
2023/10/19 04:12:35;;;;;;;5.53;2.75;;;;;;;12.49;100.00;99007.38;5020993;28;20033;-66
2023/10/19 04:15:16;;;;;;;7.35;2.67;;;;;;;12.49;100.00;99007.38;5023518;28;20456;-67
2023/10/19 04:17:42;;;;;;;4.88;2.60;;;;;;;12.50;100.00;99010.84;4993246;28;20030;-66
2023/10/19 04:22:50;;;;;;;6.97;3.13;;;;;;;12.49;100.00;99017.78;4988414;28;20044;-66
2023/10/19 04:25:18;;;;;;;5.15;3.00;;;;;;;12.51;100.00;99015.16;4989922;28;20568;-66
2023/10/19 04:27:44;;;;;;;7.10;3.08;;;;;;;12.51;100.00;99014.28;5011194;28;20490;-67
2023/10/19 04:30:15;;;;;;;8.38;3.03;;;;;;;12.52;100.00;99005.63;4989280;28;20028;-67
2023/10/19 04:32:45;;;;;;;4.68;2.92;;;;;;;12.53;100.00;99005.63;5010227;28;20058;-67
2023/10/19 04:35:13;;;;;;;5.55;3.08;;;;;;;12.54;100.00;99012.53;5003571;28;20030;-67
2023/10/19 04:37:42;;;;;;;8.15;3.92;;;;;;;12.54;100.00;99011.69;5013151;28;20052;-67
2023/10/19 04:40:10;;;;;;;7.22;4.50;;;;;;;12.53;100.00;99007.34;5002812;28;20085;-66
2023/10/19 04:42:37;;;;;;;8.70;4.22;;;;;;;12.53;100.00;99015.16;5012638;28;20510;-67
2023/10/19 04:45:05;;;;;;;8.90;4.05;;;;;;;12.51;100.00;99009.97;5004308;28;20030;-67
2023/10/19 04:47:30;;;;;;;8.55;3.50;;;;;;;12.52;100.00;99011.69;4998559;28;20022;-66
2023/10/19 04:49:55;;;;;;;4.47;3.38;;;;;;;12.51;100.00;99011.69;5021742;28;20018;-67
2023/10/19 04:52:21;;;;;;;9.13;3.03;;;;;;;12.49;100.00;99020.38;5009966;28;20476;-66
2023/10/19 04:54:46;;;;;;;6.60;2.55;;;;;;;12.45;100.00;99016.06;5022121;28;20037;-67
2023/10/19 04:57:11;;;;;;;6.15;2.97;;;;;;;12.44;100.00;99026.44;5010957;28;20029;-67
2023/10/19 04:59:37;;;;;;;7.05;3.10;;;;;;;12.42;100.00;99020.41;5007691;28;20034;-66
2023/10/19 05:02:02;;;;;;;8.88;3.10;;;;;;;12.42;100.00;99026.47;5006351;28;20022;-67
2023/10/19 05:04:29;;;;;;;7.35;3.00;;;;;;;12.41;100.00;99024.72;5009655;28;20033;-67
2023/10/19 05:06:55;;;;;;;10.38;3.45;;;;;;;12.40;100.00;99023.00;5010378;28;20500;-67
2023/10/19 05:09:20;;;;;;;8.27;3.92;;;;;;;12.41;100.00;99024.72;5011158;28;20324;-67
2023/10/19 05:11:45;;;;;;;9.05;3.70;;;;;;;12.41;100.00;99027.31;5012142;28;20183;-67
2023/10/19 05:14:13;;;;;;;7.97;3.47;;;;;;;12.42;100.00;99025.59;5013971;28;20021;-67
2023/10/19 05:16:39;;;;;;;6.88;3.38;;;;;;;12.42;100.00;99026.47;5012435;28;20556;-67
2023/10/19 05:19:04;;;;;;;6.97;2.67;;;;;;;12.42;100.00;99031.66;5006741;28;20109;-67
2023/10/19 05:21:30;;;;;;;5.22;3.38;;;;;;;12.40;100.00;99025.59;5010359;28;20402;-67
2023/10/19 05:23:55;;;;;;;8.15;3.13;;;;;;;12.40;100.00;99028.19;5010064;28;20068;-66
2023/10/19 05:26:20;;;;;;;7.95;3.38;;;;;;;12.39;100.00;99025.63;5011939;28;20026;-66
2023/10/19 05:28:47;;;;;;;6.97;3.72;;;;;;;12.38;100.00;99031.69;5014254;28;20013;-67
2023/10/19 05:31:12;;;;;;;13.40;4.05;;;;;;;12.37;100.00;99028.22;5011557;28;20109;-66
2023/10/19 05:33:38;;;;;;;5.25;2.90;;;;;;;12.37;100.00;99033.41;5009094;28;20113;-65
2023/10/19 05:36:03;;;;;;;9.20;3.20;;;;;;;12.36;100.00;99034.25;5016348;28;20029;-66
2023/10/19 05:38:28;;;;;;;9.43;3.33;;;;;;;12.36;100.00;99029.06;5022472;28;20017;-66
2023/10/19 05:40:57;;;;;;;8.45;3.00;;;;;;;12.35;100.00;99030.81;5017109;28;20050;-66
2023/10/19 05:43:22;;;;;;;8.32;2.72;;;;;;;12.35;100.00;99035.16;4996509;28;20025;-67
2023/10/19 05:45:50;;;;;;;7.97;2.80;;;;;;;12.36;100.00;99036.88;5006254;28;20037;-66
2023/10/19 05:48:15;;;;;;;9.27;2.88;;;;;;;12.35;100.00;99043.81;5019225;28;20014;-66
2023/10/19 05:50:42;;;;;;;9.45;2.85;;;;;;;12.36;100.00;99044.66;5016841;28;20360;-66
2023/10/19 05:53:07;;;;;;;10.40;3.58;;;;;;;12.36;100.00;99049.84;5004478;28;20022;-66
2023/10/19 05:55:35;;;;;;;7.45;2.92;;;;;;;12.35;100.00;99053.34;5006948;28;20483;-66
2023/10/19 05:58:01;;;;;;;5.88;3.03;;;;;;;12.35;100.00;99053.34;5008488;28;20553;-66
2023/10/19 06:00:26;;;;;;;11.98;3.20;;;;;;;12.36;100.00;99053.31;5006751;28;20045;-66
2023/10/19 06:02:52;;;;;;;7.75;2.88;;;;;;;12.35;100.00;99045.53;5006612;28;20018;-66
2023/10/19 06:05:19;;;;;;;6.68;2.80;;;;;;;12.34;100.00;99044.66;5004704;28;20030;-66
2023/10/19 06:07:45;;;;;;;8.25;2.90;;;;;;;12.36;100.00;99049.84;5002114;28;20030;-67
2023/10/19 06:10:15;;;;;;;8.52;2.67;;;;;;;12.35;100.00;99050.72;5002435;28;20022;-67
2023/10/19 06:12:42;;;;;;;10.60;2.90;;;;;;;12.34;100.00;99052.47;5012253;28;20393;-67
2023/10/19 06:15:07;;;;;;;8.45;2.90;;;;;;;12.34;100.00;99056.81;5003353;28;20477;-67
2023/10/19 06:17:33;;;;;;;13.45;3.35;;;;;;;12.33;100.00;99058.53;5006589;28;20026;-66
2023/10/19 06:19:58;;;;;;;11.93;2.88;;;;;;;12.35;100.00;99061.13;5007868;28;20021;-65
2023/10/19 06:22:24;;;;;;;7.30;2.67;;;;;;;12.32;100.00;99061.97;5000074;28;20018;-66
2023/10/19 06:24:49;;;;;;;10.98;2.92;;;;;;;12.35;100.00;99063.72;5017322;28;20080;-67
2023/10/19 06:27:14;;;;;;;8.93;2.90;;;;;;;12.35;100.00;99055.94;5000122;28;20023;-66
2023/10/19 06:29:40;;;;;;;8.88;3.03;;;;;;;12.37;100.00;99056.78;5021097;28;20030;-67
2023/10/19 06:32:05;;;;;;;8.45;2.80;;;;;;;12.38;100.00;99049.88;5016220;28;20068;-66
2023/10/19 06:34:30;;;;;;;9.50;3.35;;;;;;;12.37;100.00;99054.19;5007655;28;20022;-67
2023/10/19 06:36:55;;;;;;;6.85;2.63;;;;;;;12.38;100.00;99058.50;5006494;28;20530;-66
2023/10/19 06:39:21;;;;;;;10.18;3.10;;;;;;;12.38;100.00;99063.69;5006970;28;20025;-66
2023/10/19 06:41:47;;;;;;;9.80;2.80;;;;;;;12.38;100.00;99066.28;4999485;28;20121;-67
2023/10/19 06:44:13;;;;;;;7.65;2.97;;;;;;;12.40;100.00;99061.09;5000780;28;20516;-66
2023/10/19 06:46:39;;;;;;;9.88;2.92;;;;;;;12.40;100.00;99061.97;5002261;28;20109;-66
2023/10/19 06:49:05;;;;;;;6.10;2.80;;;;;;;12.41;100.00;99071.47;4997556;28;20688;-66
2023/10/19 06:51:30;;;;;;;5.70;2.88;;;;;;;12.42;100.00;99075.81;5009198;28;20029;-66
2023/10/19 06:53:55;;;;;;;11.10;3.58;;;;;;;12.41;100.00;99068.88;5026490;28;20036;-67
2023/10/19 06:56:21;;;;;;;10.52;3.20;;;;;;;12.43;100.00;99064.53;5015453;28;20022;-66
2023/10/19 06:58:46;;;;;;;7.28;3.25;;;;;;;12.44;100.00;99068.88;5011015;28;20362;-66
2023/10/19 07:01:13;;;;;;;10.75;3.28;;;;;;;12.45;100.00;99070.59;4997029;28;20104;-65
2023/10/19 07:03:38;;;;;;;12.00;3.13;;;;;;;12.47;100.00;99070.59;5007789;28;20109;-66
2023/10/19 07:06:04;;;;;;;11.45;3.47;;;;;;;12.49;100.00;99082.72;5013697;28;20466;-67
2023/10/19 07:08:30;;;;;;;6.90;3.22;;;;;;;12.52;100.00;99075.78;5011332;28;20072;-66
2023/10/19 07:10:55;;;;;;;10.90;3.47;;;;;;;12.55;100.00;99091.34;5008604;28;20473;-66
2023/10/19 07:13:21;;;;;;;9.35;3.40;;;;;;;12.57;100.00;99081.81;4996926;28;20089;-66
2023/10/19 07:15:49;;;;;;;15.50;3.28;;;;;;;12.60;100.00;99081.81;5009568;28;20522;-67
2023/10/19 07:18:14;;;;;;;12.32;4.07;;;;;;;12.64;100.00;99088.72;5007413;28;20124;-66
2023/10/19 07:20:42;;;;;;;9.90;3.33;;;;;;;12.65;100.00;99080.03;5021257;28;20581;-67
2023/10/19 07:23:18;;;;;;;13.23;3.58;;;;;;;12.68;100.00;99089.56;5006518;28;20482;-67
2023/10/19 07:25:54;;;;;;;9.05;3.40;;;;;;;12.69;100.00;99086.97;5008584;28;20025;-66
2023/10/19 07:28:21;;;;;;;12.90;3.60;;;;;;;12.71;100.00;99087.81;5012356;28;20053;-67
2023/10/19 07:30:47;;;;;;;10.93;3.60;;;;;;;12.72;100.00;99081.75;5010111;28;20176;-67
2023/10/19 07:33:19;;;;;;;9.70;2.85;;;;;;;12.73;100.00;99088.69;5005530;28;20378;-67
2023/10/19 07:35:59;;;;;;;11.88;3.50;;;;;;;12.73;100.00;99080.88;4990040;28;20284;-67
2023/10/19 07:38:25;;;;;;;9.18;3.03;;;;;;;12.77;100.00;99079.09;5012460;28;20462;-68
2023/10/19 07:40:53;;;;;;;10.93;3.40;;;;;;;12.79;100.00;99071.34;5008204;28;20069;-67
2023/10/19 07:43:20;;;;;;;9.13;2.80;;;;;;;12.80;100.00;99076.50;5003135;28;20022;-67
2023/10/19 07:45:46;;;;;;;13.45;3.00;;;;;;;12.83;100.00;99073.03;5014975;28;20022;-67
2023/10/19 07:48:14;;;;;;;8.75;2.80;;;;;;;12.85;100.00;99076.47;5008181;28;20429;-67
2023/10/19 07:50:42;;;;;;;7.88;3.22;;;;;;;12.88;100.00;99075.63;5007064;28;20032;-67
2023/10/19 07:53:09;;;;;;;10.77;3.13;;;;;;;12.90;100.00;99072.13;4996456;28;20022;-67
2023/10/19 07:55:35;;;;;;;7.80;3.20;;;;;;;12.94;100.00;99076.44;5008040;28;20051;-67
2023/10/19 07:58:00;;;;;;;9.98;3.00;;;;;;;12.98;100.00;99072.09;5021437;28;20080;-66
2023/10/19 08:00:26;;;;;;;10.52;2.95;;;;;;;13.03;100.00;99074.63;5006093;28;20026;-67
2023/10/19 08:02:53;;;;;;;9.85;3.08;;;;;;;13.06;100.00;99075.47;4998946;28;20107;-67
2023/10/19 08:05:18;;;;;;;10.13;3.50;;;;;;;13.08;100.00;99072.88;5024087;28;20033;-66
2023/10/19 08:07:46;;;;;;;12.75;3.10;;;;;;;13.09;100.00;99069.41;5011421;28;20032;-66
2023/10/19 08:10:12;;;;;;;9.35;3.15;;;;;;;13.12;100.00;99058.97;5015068;28;20389;-67
2023/10/19 08:12:42;;;;;;;8.10;3.72;;;;;;;13.13;100.00;99065.91;5010185;28;20029;-66
2023/10/19 08:15:12;;;;;;;7.03;2.90;;;;;;;13.14;100.00;99056.38;5025692;28;20021;-66
2023/10/19 08:17:41;;;;;;;10.57;3.10;;;;;;;13.15;100.00;99063.31;5010432;28;20429;-66
2023/10/19 08:20:09;;;;;;;12.60;3.35;;;;;;;13.16;100.00;99065.03;5022875;28;20010;-67
2023/10/19 08:22:39;;;;;;;11.20;2.90;;;;;;;13.16;100.00;99054.63;4993798;28;20050;-67
2023/10/19 08:25:11;;;;;;;14.68;3.50;;;;;;;13.18;100.00;99056.34;5004421;28;20035;-67
2023/10/19 08:27:38;;;;;;;17.23;3.42;;;;;;;13.23;100.00;99061.50;5004145;28;20448;-66
2023/10/19 08:30:04;;;;;;;8.35;2.60;;;;;;;13.28;100.00;99056.25;5017147;28;20060;-66
2023/10/19 08:32:32;;;;;;;11.35;3.75;;;;;;;13.35;100.00;99059.69;5006303;28;20052;-67
2023/10/19 08:34:58;;;;;;;12.63;3.15;;;;;;;13.40;100.00;99061.38;5029842;28;20600;-67
2023/10/19 08:37:23;;;;;;;7.28;2.65;;;;;;;13.47;100.00;99059.59;5014072;28;20069;-67
2023/10/19 08:39:50;;;;;;;9.13;3.05;;;;;;;13.52;100.00;99056.94;4991612;28;20019;-67
2023/10/19 08:42:15;;;;;;;9.05;2.80;;;;;;;13.56;100.00;99053.50;5005890;28;20042;-67
2023/10/19 08:44:41;;;;;;;10.02;2.50;;;;;;;13.58;100.00;99051.75;5009706;28;20052;-66
2023/10/19 08:47:06;;;;;;;9.52;3.25;;;;;;;13.61;100.00;99050.84;5010821;28;20033;-67
2023/10/19 08:49:31;;;;;;;5.28;2.22;;;;;;;13.67;100.00;99042.97;4995170;28;20034;-67
2023/10/19 08:51:58;;;;;;;10.18;3.13;;;;;;;13.90;100.00;99042.75;4999935;28;20172;-67
2023/10/19 08:54:25;;;;;;;11.88;3.08;;;;;;;14.28;100.00;99047.56;5025892;28;20347;-66
2023/10/19 08:56:51;;;;;;;8.18;2.97;;;;;;;14.58;100.00;99045.44;5021287;28;20022;-67
2023/10/19 08:59:17;;;;;;;9.45;2.40;;;;;;;14.85;100.00;99051.19;4999488;28;20025;-67
2023/10/19 09:01:46;;;;;;;8.13;2.13;;;;;;;15.05;100.00;99054.38;5003655;28;20475;-66
2023/10/19 09:04:13;;;;;;;9.10;2.42;;;;;;;15.20;100.00;99045.47;5007235;28;20044;-67
2023/10/19 09:06:41;;;;;;;8.80;1.90;;;;;;;15.32;100.00;99057.44;5028196;28;20025;-67
2023/10/19 09:09:20;;;;;;;3.50;1.45;;;;;;;15.41;100.00;99046.00;5001836;28;20393;-67
2023/10/19 09:11:46;;;;;;;6.95;1.92;;;;;;;15.46;100.00;99045.03;4999536;28;20244;-67
2023/10/19 09:14:12;;;;;;;10.05;1.95;;;;;;;15.52;100.00;99038.84;5016112;28;20053;-67
2023/10/19 09:16:54;;;;;;;11.85;2.83;;;;;;;15.54;100.00;99031.84;5001767;28;20381;-66
2023/10/19 09:19:20;;;;;;;4.65;1.95;;;;;;;15.56;100.00;99024.84;5004685;28;20033;-67
2023/10/19 09:21:46;;;;;;;10.65;1.77;;;;;;;15.54;100.00;99025.78;5002631;28;20105;-67
2023/10/19 09:24:11;;;;;;;12.15;2.10;;;;;;;15.51;100.00;99016.22;5007556;28;20033;-66
2023/10/19 09:26:37;;;;;;;8.43;1.92;;;;;;;15.45;100.00;99022.41;5010757;28;20555;-67
2023/10/19 09:29:03;;;;;;;7.13;2.08;;;;;;;15.42;100.00;99021.59;5010066;28;20010;-67
2023/10/19 09:31:30;;;;;;;7.75;1.80;;;;;;;15.36;100.00;99026.03;5007624;28;20528;-67
2023/10/19 09:33:56;;;;;;;7.57;2.17;;;;;;;15.36;100.00;99023.44;5009987;28;20033;-67
2023/10/19 09:36:26;;;;;;;13.43;2.17;;;;;;;15.40;100.00;99018.19;5015865;28;20044;-67
2023/10/19 09:38:51;;;;;;;7.13;1.88;;;;;;;15.41;100.00;99031.22;5029067;28;20053;-67
2023/10/19 09:41:19;;;;;;;5.85;1.55;;;;;;;15.41;100.00;99027.72;5022660;28;20585;-67
2023/10/19 09:43:48;;;;;;;6.85;1.90;;;;;;;15.42;100.00;99027.69;5002331;28;20080;-67
2023/10/19 09:46:21;;;;;;;9.35;2.20;;;;;;;15.44;100.00;99025.94;5004080;28;20068;-67
2023/10/19 09:48:48;;;;;;;8.40;1.98;;;;;;;15.45;100.00;99021.56;5009827;28;20029;-67
2023/10/19 09:51:16;;;;;;;7.05;1.52;;;;;;;15.46;100.00;99020.69;5008886;28;20030;-67
2023/10/19 09:53:42;;;;;;;6.60;1.63;;;;;;;15.47;100.00;99025.88;5009466;28;20390;-68
2023/10/19 09:56:13;;;;;;;5.38;1.83;;;;;;;15.48;100.00;99018.91;5008544;28;20489;-66
2023/10/19 09:59:02;;;;;;;12.07;2.42;;;;;;;15.51;100.00;99011.00;5009703;28;20390;-67
2023/10/19 10:01:27;;;;;;;9.48;2.38;;;;;;;15.54;100.00;99004.91;5009259;28;20105;-67
2023/10/19 10:03:53;;;;;;;7.57;2.70;;;;;;;15.55;100.00;99007.47;5011037;28;20111;-67
2023/10/19 10:06:50;;;;;;;8.50;2.63;;;;;;;15.59;100.00;99000.44;5009270;28;20021;-67
2023/10/19 10:09:23;;;;;;;5.18;1.65;;;;;;;15.61;100.00;99002.13;5012177;28;20606;-67
2023/10/19 10:11:49;;;;;;;8.85;2.28;;;;;;;15.64;100.00;98998.63;5016716;28;20382;-67
2023/10/19 10:14:26;;;;;;;7.15;1.92;;;;;;;15.66;100.00;98989.00;5014628;28;20029;-67
2023/10/19 10:17:04;;;;;;;8.38;2.13;;;;;;;15.70;100.00;99000.25;5016069;28;20036;-67
2023/10/19 10:19:30;;;;;;;8.57;1.98;;;;;;;15.69;100.00;99011.56;5010319;28;20084;-68
2023/10/19 10:22:21;;;;;;;8.23;1.80;;;;;;;15.68;100.00;99013.34;5009259;28;20033;-67
2023/10/19 10:24:47;;;;;;;9.23;2.08;;;;;;;15.69;100.00;99014.19;5000051;28;20485;-67
2023/10/19 10:27:18;;;;;;;10.13;2.13;;;;;;;15.69;100.00;99016.78;5007213;28;20019;-67
2023/10/19 10:29:59;;;;;;;;;;;;;;;15.70;100.00;99016.75;5008117;28;20448;-67
2023/10/19 10:32:55;;;;;;;8.35;2.08;;;;;;;15.77;100.00;99014.91;5005844;28;20420;-68
2023/10/19 10:35:36;;;;;;;6.85;1.60;;;;;;;15.80;100.00;99012.25;5000187;28;20487;-67
2023/10/19 10:38:04;;;;;;;8.68;1.83;;;;;;;15.85;100.00;99018.22;5002014;28;20018;-67
2023/10/19 10:40:31;;;;;;;8.43;2.35;;;;;;;15.85;100.00;99018.22;5015489;28;20418;-67
2023/10/19 10:43:06;;;;;;;9.80;2.33;;;;;;;15.87;100.00;99012.13;5007927;28;20117;-68
2023/10/19 10:45:32;;;;;;;10.85;2.67;;;;;;;15.84;100.00;99007.81;5005850;28;20026;-67
2023/10/19 10:47:57;;;;;;;8.52;1.80;;;;;;;15.87;100.00;99004.28;5007909;28;20428;-67
2023/10/19 10:50:23;;;;;;;7.07;1.90;;;;;;;15.90;100.00;99017.31;5017298;28;20549;-67
2023/10/19 10:52:50;;;;;;;10.82;3.03;;;;;;;15.92;100.00;99015.53;5010598;28;20104;-67
2023/10/19 10:55:15;;;;;;;8.20;2.35;;;;;;;15.94;100.00;99013.72;4998198;28;20036;-67
2023/10/19 10:57:43;;;;;;;6.65;1.90;;;;;;;15.92;100.00;99020.75;5010709;28;20025;-67
2023/10/19 11:00:15;;;;;;;9.13;2.45;;;;;;;15.91;100.00;99014.66;5027172;28;20034;-66
2023/10/19 11:02:45;;;;;;;7.78;2.10;;;;;;;15.92;100.00;99023.34;5019197;28;20049;-67
2023/10/19 11:05:12;;;;;;;7.70;1.98;;;;;;;15.93;100.00;99014.63;5000058;28;20084;-67
2023/10/19 11:07:39;;;;;;;10.02;2.75;;;;;;;15.94;100.00;99008.50;5015945;28;20026;-67
2023/10/19 11:10:05;;;;;;;8.07;2.25;;;;;;;15.95;100.00;99010.22;5011414;28;20025;-66
2023/10/19 11:12:31;;;;;;;9.15;2.33;;;;;;;15.96;100.00;98997.13;5021945;28;20048;-67
2023/10/19 11:15:09;;;;;;;6.55;1.95;;;;;;;16.00;100.00;98989.25;5014303;28;20036;-68
2023/10/19 11:17:42;;;;;;;9.07;2.60;;;;;;;16.03;100.00;98991.84;4992170;28;20028;-68
2023/10/19 11:20:13;;;;;;;6.07;1.92;;;;;;;16.07;100.00;98983.91;4996182;28;20054;-67
2023/10/19 11:22:48;;;;;;;8.50;1.98;;;;;;;16.16;100.00;98974.13;5026913;28;20271;-66
2023/10/19 11:25:26;;;;;;;5.93;2.45;;;;;;;16.27;100.00;98977.41;5000589;28;20496;-67
2023/10/19 11:27:52;;;;;;;6.43;1.98;;;;;;;16.37;100.00;98972.81;5008004;28;20378;-67
2023/10/19 11:30:29;;;;;;;8.48;2.47;;;;;;;16.43;100.00;98977.06;5007672;28;20096;-67
2023/10/19 11:32:59;;;;;;;9.13;2.38;;;;;;;16.44;100.00;98979.63;5008391;28;20029;-67
2023/10/19 11:35:30;;;;;;;5.30;1.90;;;;;;;16.50;100.00;98973.41;5006590;28;20018;-67
2023/10/19 11:37:57;;;;;;;7.97;2.22;;;;;;;16.54;100.00;98966.38;5007828;28;20318;-67